»·PEaware :: SWA2374 KLGB-KLAS

SWA2374 :: KLGB-KLAS

FLIGHT INFORMATION

Flight Status: Arrived
Operator:
Southwest Airlines
More flights by this operator :: More flights under this callsign
Pilot: Joshua T. (23864)
Aircraft: BOEING 737-600
(B736)
More flights by this aircraft type
Origin: KLGB Long Beach
United States
Destination: KLAS Harry Reid Intl
United States
More flights between these airports :: More routes between these airports
Route: ZOOMM3 MISEN RNDRZ2
File this flight plan on PilotEdge
Remarks:
Altitude:
(Current/Filed)
27,000ft
Speed:
(Current/Filed)
430kts
Departed: 19-Jan-23 12:41 PM
Arrived: 19-Jan-23 01:32 PM
Distance/Time
Traveled:
201nm/0:51
Distance/Time
To Go:
Arrived

Flight Plot

Page will automatically refresh every two minutes.

Flight plan parsing failed; only flown route is shown


Map Options




Map Legend


Flown Route
Filed Route
Departure Airport
Arrival Airport
Navaid (VOR, NDB)
Fix

Horizontal Profiles

Position Reports

Time Latitude Longitude Heading Altitude Ground
Speed
19-Jan-23 12:02 33.819778 -118.145953 90 77ft 0kts
19-Jan-23 12:03 33.819778 -118.145953 90 77ft 0kts
19-Jan-23 12:04 33.819778 -118.145953 90 77ft 0kts
19-Jan-23 12:05 33.819778 -118.145953 90 77ft 0kts
19-Jan-23 12:06 33.819778 -118.145953 90 49ft 0kts
19-Jan-23 12:07 33.819778 -118.145953 90 49ft 0kts
19-Jan-23 12:08 33.819778 -118.145953 90 49ft 0kts
19-Jan-23 12:09 33.819778 -118.145953 90 49ft 0kts
19-Jan-23 12:10 33.819778 -118.145953 90 49ft 0kts
19-Jan-23 12:11 33.819778 -118.145953 90 49ft 0kts
19-Jan-23 12:12 33.819778 -118.145953 90 49ft 0kts
19-Jan-23 12:13 33.819778 -118.145953 90 49ft 0kts
19-Jan-23 12:14 33.819778 -118.145953 90 49ft 0kts
19-Jan-23 12:15 33.819778 -118.145953 90 49ft 0kts
19-Jan-23 12:16 33.819778 -118.145953 90 49ft 0kts
19-Jan-23 12:17 33.819778 -118.145953 90 49ft 0kts
19-Jan-23 12:18 33.819778 -118.145953 90 49ft 0kts
19-Jan-23 12:19 33.819778 -118.145953 90 49ft 0kts
19-Jan-23 12:20 33.819778 -118.145953 90 49ft 0kts
19-Jan-23 12:21 33.819778 -118.145953 90 49ft 0kts
19-Jan-23 12:22 33.819778 -118.145953 90 49ft 0kts
19-Jan-23 12:23 33.819778 -118.145953 90 49ft 0kts
19-Jan-23 12:24 33.819778 -118.145953 90 49ft 0kts
19-Jan-23 12:25 33.819778 -118.145953 90 49ft 0kts
19-Jan-23 12:26 33.819778 -118.145953 90 49ft 0kts
19-Jan-23 12:27 33.819778 -118.145953 90 49ft 0kts
19-Jan-23 12:28 33.819783 -118.146687 90 47ft 2kts
19-Jan-23 12:29 33.819790 -118.147044 94 49ft 0kts
19-Jan-23 12:30 33.819790 -118.147044 94 49ft 0kts
19-Jan-23 12:31 33.819790 -118.147044 94 49ft 0kts
19-Jan-23 12:32 33.819790 -118.147044 94 49ft 0kts
19-Jan-23 12:33 33.819755 -118.146979 145 47ft 0kts
19-Jan-23 12:34 33.818009 -118.147972 178 52ft 11kts
19-Jan-23 12:35 33.814836 -118.145920 134 46ft 19kts
19-Jan-23 12:36 33.811244 -118.141570 135 42ft 17kts
19-Jan-23 12:37 33.808147 -118.137825 134 36ft 10kts
19-Jan-23 12:38 33.807724 -118.137552 177 35ft 0kts
19-Jan-23 12:39 33.807136 -118.138092 242 33ft 10kts
19-Jan-23 12:40 33.823776 -118.158450 313 594ft 192kts
19-Jan-23 12:41 33.831421 -118.216253 227 3676ft 232kts
19-Jan-23 12:42 33.763386 -118.238663 195 6905ft 278kts
19-Jan-23 12:43 33.685873 -118.255594 194 7377ft 282kts
19-Jan-23 12:44 33.606335 -118.235275 148 10383ft 330kts
19-Jan-23 12:45 33.586047 -118.130847 53 13551ft 346kts
19-Jan-23 12:46 33.661542 -118.081280 7 16963ft 316kts
19-Jan-23 12:47 33.743551 -118.043582 18 20722ft 305kts
19-Jan-23 12:48 33.820546 -117.996628 17 23171ft 323kts
19-Jan-23 12:49 33.909168 -117.941977 24 24024ft 378kts
19-Jan-23 12:50 33.992333 -117.866100 29 27074ft 369kts
19-Jan-23 12:51 34.073463 -117.791897 29 27156ft 368kts
19-Jan-23 12:52 34.143951 -117.697336 42 27159ft 384kts
19-Jan-23 12:53 34.210123 -117.598317 42 27149ft 386kts
19-Jan-23 12:54 34.277547 -117.497947 42 27146ft 387kts
19-Jan-23 12:55 34.345228 -117.396834 42 27132ft 387kts
19-Jan-23 12:56 34.412973 -117.295381 43 27122ft 386kts
19-Jan-23 12:57 34.480538 -117.193892 43 27117ft 388kts
19-Jan-23 12:58 34.548384 -117.091820 42 27106ft 390kts
19-Jan-23 12:59 34.617369 -116.991455 42 27087ft 384kts
19-Jan-23 13:00 34.686136 -116.891278 43 27088ft 388kts
19-Jan-23 13:01 34.755501 -116.789704 42 27100ft 392kts
19-Jan-23 13:02 34.825048 -116.687568 42 27082ft 390kts
19-Jan-23 13:03 34.901229 -116.598238 30 27068ft 375kts
19-Jan-23 13:04 34.983717 -116.519263 30 27049ft 379kts
19-Jan-23 13:06 35.063178 -116.442812 29 25586ft 367kts
19-Jan-23 13:07 35.141600 -116.358255 41 23923ft 379kts
19-Jan-23 13:08 35.210005 -116.263857 38 22685ft 365kts
19-Jan-23 13:09 35.278513 -116.172894 42 21481ft 360kts
19-Jan-23 13:10 35.345692 -116.079908 41 20417ft 363kts
19-Jan-23 13:11 35.412706 -115.987812 42 19419ft 362kts
19-Jan-23 13:12 35.478664 -115.896782 42 19027ft 343kts
19-Jan-23 13:13 35.541881 -115.809486 43 17410ft 342kts
19-Jan-23 13:14 35.604241 -115.723347 43 16237ft 335kts
19-Jan-23 13:15 35.666466 -115.639469 44 14839ft 328kts
19-Jan-23 13:16 35.727764 -115.557237 38 14040ft 324kts
19-Jan-23 13:17 35.804525 -115.502168 25 14044ft 318kts
19-Jan-23 13:18 35.881022 -115.448713 26 13105ft 314kts
19-Jan-23 13:19 35.956306 -115.396046 26 12303ft 307kts
19-Jan-23 13:20 36.014152 -115.333047 81 11912ft 273kts
19-Jan-23 13:21 36.010038 -115.241449 95 10898ft 265kts
19-Jan-23 13:22 36.004805 -115.151459 95 9819ft 257kts
19-Jan-23 13:23 35.999749 -115.063867 95 8879ft 253kts
19-Jan-23 13:24 35.998980 -114.980750 91 8074ft 237kts
19-Jan-23 13:25 36.002090 -114.901656 72 6942ft 227kts
19-Jan-23 13:26 36.048247 -114.878525 318 5501ft 195kts
19-Jan-23 13:27 36.073267 -114.930954 283 4635ft 169kts
19-Jan-23 13:27 36.074032 -114.977108 266 4414ft 157kts
19-Jan-23 13:29 36.073551 -115.040333 270 3393ft 142kts
19-Jan-23 13:30 36.073704 -115.088554 273 2681ft 138kts
19-Jan-23 13:31 36.073644 -115.134752 272 2081ft 120kts
19-Jan-23 13:32 36.075273 -115.151260 323 2143ft 0kts
19-Jan-23 13:32 36.075298 -115.151282 324 2140ft 3kts
19-Jan-23 13:33 36.078732 -115.150087 93 2142ft 16kts
19-Jan-23 13:35 36.080357 -115.144864 359 2113ft 14kts
19-Jan-23 13:36 36.081622 -115.146209 261 2115ft 2kts
19-Jan-23 13:36 36.081593 -115.146402 259 2117ft 0kts
19-Jan-23 13:37 36.081593 -115.146402 259 2117ft 0kts
19-Jan-23 13:38 36.081593 -115.146402 259 2117ft 0kts
19-Jan-23 13:40 36.081593 -115.146402 259 2117ft 0kts
19-Jan-23 13:41 36.081593 -115.146402 259 2117ft 0kts
19-Jan-23 13:41 36.081593 -115.146402 259 2117ft 0kts
19-Jan-23 13:42 36.081593 -115.146402 259 2117ft 0kts

Navigation Log

Ident Type
Flight plan parsing failed, navigation log unavailable